Terminal Aerodrome Forecast
Issued by NWS

Home | Current Version | Previous Version | Graphics & Text | Print | Product List | Glossary On
Versions: 1 2 3 4 5 6 7 8 9 10 11 12 13 14
000
FTUS43 KMPX 261120
TAFRNH
TAF
KRNH 261120Z 2612/2712 15004KT P6SM SCT120 OVC200
     FM261900 17007KT P6SM VCSH SCT040
     FM270100 14003KT P6SM SCT040
     FM271000 11002KT 2SM BR SCT007=

USA.gov is the U.S. government's official web portal to all federal, state and local government web resources and services.